createdAt,value
2018-07-28T00:00:38.264Z,0.00
2018-07-28T00:01:38.262Z,0.00
2018-07-28T00:02:38.282Z,0.00
2018-07-28T00:03:38.232Z,0.00
2018-07-28T00:04:38.227Z,0.00
2018-07-28T00:05:38.213Z,0.00
2018-07-28T00:06:38.196Z,0.00
2018-07-28T00:07:38.193Z,0.00
2018-07-28T00:08:38.218Z,0.00
2018-07-28T00:09:38.167Z,0.00
2018-07-28T00:10:38.154Z,0.00
2018-07-28T00:11:38.149Z,0.00
2018-07-28T00:12:38.142Z,0.00
2018-07-28T00:13:38.173Z,0.00
2018-07-28T00:14:38.136Z,0.00
2018-07-28T00:15:38.101Z,0.00
2018-07-28T00:16:38.093Z,0.00
2018-07-28T00:17:38.080Z,0.00
2018-07-28T00:18:38.068Z,0.00
2018-07-28T00:19:38.067Z,0.00
2018-07-28T00:20:38.050Z,0.00
2018-07-28T00:21:38.057Z,0.00
2018-07-28T00:22:38.031Z,0.00
2018-07-28T00:23:38.013Z,0.00
2018-07-28T00:24:38.007Z,0.00
2018-07-28T00:25:37.996Z,0.00
2018-07-28T00:26:37.988Z,0.00
2018-07-28T00:27:37.970Z,0.00
2018-07-28T00:28:37.962Z,0.00
2018-07-28T00:29:37.970Z,0.00
2018-07-28T00:30:37.942Z,0.00
2018-07-28T00:31:37.937Z,0.00
2018-07-28T00:32:37.925Z,0.00
2018-07-28T00:33:37.910Z,0.00
2018-07-28T00:34:37.931Z,0.00
2018-07-28T00:35:37.885Z,0.00
2018-07-28T00:36:37.875Z,0.00
2018-07-28T00:37:37.864Z,0.00
2018-07-28T00:38:37.851Z,0.00
2018-07-28T00:39:37.890Z,0.00
2018-07-28T00:40:37.840Z,0.00
2018-07-28T00:41:37.821Z,0.00
2018-07-28T00:42:37.827Z,0.00
2018-07-28T00:43:37.805Z,0.00
2018-07-28T00:44:37.793Z,0.00
2018-07-28T00:45:37.781Z,0.00
2018-07-28T00:46:37.777Z,0.00
2018-07-28T00:47:37.754Z,0.00
2018-07-28T00:48:37.747Z,0.00
2018-07-28T00:49:37.774Z,0.00
2018-07-28T00:50:37.729Z,0.00
2018-07-28T00:51:37.731Z,0.00
2018-07-28T00:52:37.705Z,0.00
2018-07-28T00:53:37.695Z,0.00
2018-07-28T00:54:37.686Z,0.00
2018-07-28T00:55:37.671Z,0.00
2018-07-28T00:56:37.666Z,0.00
2018-07-28T00:57:37.653Z,0.00
2018-07-28T00:58:37.665Z,0.00
2018-07-28T00:59:37.626Z,0.00
2018-07-28T01:00:37.620Z,0.00
2018-07-28T01:01:37.621Z,0.00
2018-07-28T01:02:37.593Z,0.00
2018-07-28T01:03:37.602Z,0.00
2018-07-28T01:04:37.587Z,0.00
2018-07-28T01:05:37.588Z,0.00
2018-07-28T01:06:37.574Z,0.00
2018-07-28T01:07:37.544Z,0.00
2018-07-28T01:08:37.531Z,0.00
2018-07-28T01:09:37.521Z,0.00
2018-07-28T01:10:37.536Z,0.00
2018-07-28T01:11:37.504Z,0.00
2018-07-28T01:12:37.498Z,0.00
2018-07-28T01:13:37.484Z,0.00
2018-07-28T01:14:37.464Z,0.00
2018-07-28T01:15:37.480Z,0.00
2018-07-28T01:16:37.468Z,0.00
2018-07-28T01:17:37.449Z,0.00
2018-07-28T01:18:37.431Z,0.00
2018-07-28T01:19:37.412Z,0.00
2018-07-28T01:20:37.416Z,0.00
2018-07-28T01:21:37.397Z,0.00
2018-07-28T01:22:37.378Z,0.00
2018-07-28T01:23:37.375Z,0.00
2018-07-28T01:24:37.361Z,0.00
2018-07-28T01:25:37.359Z,0.00
2018-07-28T01:26:37.368Z,0.00
2018-07-28T01:27:37.325Z,0.00
2018-07-28T01:28:37.320Z,0.00
2018-07-28T01:29:37.307Z,0.00
2018-07-28T01:30:37.299Z,0.00
2018-07-28T01:31:37.305Z,0.00
2018-07-28T01:32:37.273Z,0.00
2018-07-28T01:33:37.262Z,0.00
2018-07-28T01:34:37.251Z,0.00
2018-07-28T01:35:37.263Z,0.00
2018-07-28T01:36:37.234Z,0.00
2018-07-28T01:37:37.229Z,0.00
2018-07-28T01:38:37.213Z,0.00
2018-07-28T01:39:37.196Z,0.00
2018-07-28T01:40:37.187Z,0.00
2018-07-28T01:41:37.205Z,0.00
2018-07-28T01:42:37.163Z,0.00
2018-07-28T01:43:37.164Z,0.00
2018-07-28T01:44:37.148Z,0.00
2018-07-28T01:45:37.134Z,0.00
2018-07-28T01:46:37.124Z,0.00
2018-07-28T01:47:37.146Z,0.00
2018-07-28T01:48:37.102Z,0.00
2018-07-28T01:49:37.122Z,0.00
2018-07-28T01:50:37.102Z,0.00
2018-07-28T01:51:37.073Z,0.00
2018-07-28T01:52:37.088Z,0.00
2018-07-28T01:53:37.057Z,0.00
2018-07-28T01:54:37.037Z,0.00
2018-07-28T01:55:37.027Z,0.00
2018-07-28T01:56:37.020Z,0.00
2018-07-28T01:57:37.011Z,0.00
2018-07-28T01:58:36.998Z,0.00
2018-07-28T01:59:37.019Z,0.00
2018-07-28T02:00:36.974Z,0.00
2018-07-28T02:01:36.989Z,0.00
2018-07-28T02:02:36.961Z,0.00
2018-07-28T02:03:36.941Z,0.00
2018-07-28T02:04:36.928Z,0.00
2018-07-28T02:05:36.923Z,0.00
2018-07-28T02:06:36.909Z,0.00
2018-07-28T02:07:36.914Z,0.00
2018-07-28T02:08:36.892Z,0.00
2018-07-28T02:09:36.883Z,0.00
2018-07-28T02:10:36.895Z,0.00
2018-07-28T02:11:36.855Z,0.00
2018-07-28T02:12:36.843Z,0.00
2018-07-28T02:13:36.833Z,0.00
2018-07-28T02:14:36.834Z,0.00
2018-07-28T02:15:36.822Z,0.00
2018-07-28T02:16:36.809Z,0.00
2018-07-28T02:17:36.789Z,0.00
2018-07-28T02:18:36.781Z,0.00
2018-07-28T02:19:36.772Z,0.00
2018-07-28T02:20:36.763Z,0.00
2018-07-28T02:21:36.755Z,0.00
2018-07-28T02:22:36.741Z,0.00
2018-07-28T02:23:36.729Z,0.00
2018-07-28T02:24:36.718Z,0.00
2018-07-28T02:25:36.704Z,0.00
2018-07-28T02:26:36.722Z,0.00
2018-07-28T02:27:36.686Z,0.00
2018-07-28T02:28:36.689Z,0.00
2018-07-28T02:29:36.667Z,0.00
2018-07-28T02:30:36.654Z,0.00
2018-07-28T02:31:36.645Z,0.00
2018-07-28T02:32:36.636Z,0.00
2018-07-28T02:33:36.628Z,0.00
2018-07-28T02:34:36.637Z,0.00
2018-07-28T02:35:36.614Z,0.00
2018-07-28T02:36:36.621Z,0.00
2018-07-28T02:37:36.588Z,0.00
2018-07-28T02:38:36.567Z,0.00
2018-07-28T02:39:36.558Z,0.00
2018-07-28T02:40:36.549Z,0.00
2018-07-28T02:41:36.539Z,0.00
2018-07-28T02:42:36.533Z,0.00
2018-07-28T02:43:36.513Z,0.00
2018-07-28T02:44:36.503Z,0.00
2018-07-28T02:45:36.489Z,0.00
2018-07-28T02:46:36.484Z,0.00
2018-07-28T02:47:36.501Z,0.00
2018-07-28T02:48:36.463Z,0.00
2018-07-28T02:49:36.444Z,0.00
2018-07-28T02:50:36.441Z,0.00
2018-07-28T02:51:36.428Z,0.00
2018-07-28T02:52:36.419Z,0.00
2018-07-28T02:53:36.412Z,0.00
2018-07-28T02:54:36.396Z,0.00
2018-07-28T02:55:36.389Z,0.00
2018-07-28T02:56:36.387Z,0.00
2018-07-28T02:57:36.371Z,0.00
2018-07-28T02:58:36.357Z,0.00
2018-07-28T02:59:36.346Z,0.00
2018-07-28T03:00:36.335Z,0.00
2018-07-28T03:01:36.325Z,0.00
2018-07-28T03:02:36.310Z,0.00
2018-07-28T03:03:36.303Z,0.00
2018-07-28T03:04:36.310Z,0.00
2018-07-28T03:05:36.280Z,0.00
2018-07-28T03:06:36.279Z,0.00
2018-07-28T03:07:36.254Z,4.00
2018-07-28T03:08:36.251Z,4.00
2018-07-28T03:09:36.230Z,0.00
2018-07-28T03:10:36.232Z,0.00
2018-07-28T03:11:36.218Z,4.00
2018-07-28T03:12:36.228Z,4.00
2018-07-28T03:13:36.222Z,4.00
2018-07-28T03:14:36.181Z,4.00
2018-07-28T03:15:36.172Z,4.00
2018-07-28T03:16:36.155Z,8.00
2018-07-28T03:17:36.143Z,8.00
2018-07-28T03:18:36.135Z,8.00
2018-07-28T03:19:36.136Z,8.00
2018-07-28T03:20:36.129Z,8.00
2018-07-28T03:21:36.100Z,12.00
2018-07-28T03:22:36.092Z,12.00
2018-07-28T03:23:36.092Z,16.00
2018-07-28T03:24:36.076Z,16.00
2018-07-28T03:25:36.089Z,24.00
2018-07-28T03:26:36.055Z,24.00
2018-07-28T03:27:36.040Z,28.00
2018-07-28T03:28:36.025Z,32.00
2018-07-28T03:29:36.046Z,36.00
2018-07-28T03:30:36.005Z,44.00
2018-07-28T03:31:36.000Z,48.00
2018-07-28T03:32:35.989Z,52.00
2018-07-28T03:33:35.980Z,56.00
2018-07-28T03:34:35.971Z,64.00
2018-07-28T03:35:35.958Z,72.00
2018-07-28T03:36:35.938Z,80.00
2018-07-28T03:37:35.934Z,92.00
2018-07-28T03:38:35.921Z,104.00
2018-07-28T03:39:35.924Z,112.00
2018-07-28T03:40:35.910Z,124.00
2018-07-28T03:41:35.885Z,136.00
2018-07-28T03:42:35.877Z,148.00
2018-07-28T03:43:35.867Z,164.00
2018-07-28T03:44:35.872Z,180.00
2018-07-28T03:45:35.887Z,192.00
2018-07-28T03:46:35.844Z,212.00
2018-07-28T03:47:35.822Z,224.00
2018-07-28T03:48:35.818Z,244.00
2018-07-28T03:49:35.801Z,256.00
2018-07-28T03:50:35.791Z,280.00
2018-07-28T03:51:35.785Z,296.00
2018-07-28T03:52:35.775Z,312.00
2018-07-28T03:53:35.758Z,332.00
2018-07-28T03:54:35.748Z,356.00
2018-07-28T03:55:35.739Z,380.00
2018-07-28T03:56:35.740Z,408.00
2018-07-28T03:57:35.722Z,432.00
2018-07-28T03:58:35.709Z,464.00
2018-07-28T03:59:35.708Z,492.00
2018-07-28T04:00:35.681Z,524.00
2018-07-28T04:01:35.672Z,560.00
2018-07-28T04:02:35.661Z,596.00
2018-07-28T04:03:35.695Z,632.00
2018-07-28T04:04:35.646Z,652.00
2018-07-28T04:05:35.636Z,688.00
2018-07-28T04:06:35.626Z,736.00
2018-07-28T04:07:35.623Z,796.00
2018-07-28T04:08:35.594Z,856.00
2018-07-28T04:09:35.590Z,908.00
2018-07-28T04:10:35.584Z,956.00
2018-07-28T04:11:35.608Z,992.00
2018-07-28T04:12:35.552Z,1016.00
2018-07-28T04:13:35.552Z,1040.00
2018-07-28T04:14:35.558Z,1056.00
2018-07-28T04:15:35.541Z,1080.00
2018-07-28T04:16:35.523Z,1100.00
2018-07-28T04:17:35.512Z,1124.00
2018-07-28T04:18:35.512Z,1108.00
2018-07-28T04:19:35.476Z,1064.00
2018-07-28T04:20:35.467Z,1040.00
2018-07-28T04:21:35.461Z,1060.00
2018-07-28T04:22:35.472Z,1060.00
2018-07-28T04:23:35.440Z,1080.00
2018-07-28T04:24:35.432Z,1100.00
2018-07-28T04:25:35.414Z,1124.00
2018-07-28T04:26:35.413Z,1176.00
2018-07-28T04:27:35.396Z,1220.00
2018-07-28T04:28:35.444Z,1244.00
2018-07-28T04:29:35.471Z,1316.00
2018-07-28T04:30:35.365Z,1356.00
2018-07-28T04:31:35.347Z,1376.00
2018-07-28T04:32:35.347Z,1408.00
2018-07-28T04:33:35.329Z,1464.00
2018-07-28T04:34:35.324Z,1500.00
2018-07-28T04:35:35.310Z,1556.00
2018-07-28T04:36:35.304Z,1600.00
2018-07-28T04:37:35.296Z,1616.00
2018-07-28T04:38:35.288Z,1644.00
2018-07-28T04:39:35.260Z,1700.00
2018-07-28T04:40:35.265Z,1776.00
2018-07-28T04:41:35.253Z,1808.00
2018-07-28T04:42:35.235Z,1856.00
2018-07-28T04:43:35.246Z,1884.00
2018-07-28T04:44:35.209Z,1928.00
2018-07-28T04:45:35.199Z,1964.00
2018-07-28T04:46:35.188Z,2020.00
2018-07-28T04:47:35.181Z,2080.00
2018-07-28T04:48:35.200Z,2128.00
2018-07-28T04:49:35.158Z,2172.00
2018-07-28T04:50:35.154Z,2208.00
2018-07-28T04:51:35.146Z,2248.00
2018-07-28T04:52:35.122Z,2288.00
2018-07-28T04:53:35.112Z,2332.00
2018-07-28T04:54:35.101Z,2364.00
2018-07-28T04:55:35.124Z,2400.00
2018-07-28T04:56:35.082Z,2436.00
2018-07-28T04:57:35.075Z,2460.00
2018-07-28T04:58:35.062Z,2492.00
2018-07-28T04:59:35.056Z,2528.00
2018-07-28T05:00:35.042Z,2564.00
2018-07-28T05:01:35.029Z,2604.00
2018-07-28T05:02:35.036Z,2648.00
2018-07-28T05:03:35.029Z,2692.00
2018-07-28T05:04:35.020Z,2716.00
2018-07-28T05:05:34.991Z,2752.00
2018-07-28T05:06:34.970Z,2788.00
2018-07-28T05:07:35.158Z,2824.00
2018-07-28T05:08:34.957Z,2864.00
2018-07-28T05:09:34.967Z,2896.00
2018-07-28T05:10:34.940Z,2912.00
2018-07-28T05:11:34.916Z,2932.00
2018-07-28T05:12:34.908Z,2952.00
2018-07-28T05:13:34.900Z,2968.00
2018-07-28T05:14:34.896Z,2980.00
2018-07-28T05:15:34.879Z,2988.00
2018-07-28T05:16:34.867Z,2988.00
2018-07-28T05:17:34.854Z,2988.00
2018-07-28T05:18:34.857Z,3004.00
2018-07-28T05:19:34.870Z,3024.00
2018-07-28T05:20:34.828Z,3052.00
2018-07-28T05:21:34.815Z,3080.00
2018-07-28T05:22:34.805Z,3100.00
2018-07-28T05:23:34.815Z,3124.00
2018-07-28T05:24:34.781Z,3160.00
2018-07-28T05:25:34.770Z,3180.00
2018-07-28T05:26:34.765Z,3216.00
2018-07-28T05:27:34.751Z,3248.00
2018-07-28T05:28:34.755Z,3284.00
2018-07-28T05:29:34.786Z,3324.00
2018-07-28T05:30:34.730Z,3356.00
2018-07-28T05:31:34.709Z,3392.00
2018-07-28T05:32:34.695Z,3424.00
2018-07-28T05:33:34.696Z,3460.00
2018-07-28T05:34:34.676Z,3492.00
2018-07-28T05:35:34.695Z,3536.00
2018-07-28T05:36:34.650Z,3576.00
2018-07-28T05:37:34.649Z,3612.00
2018-07-28T05:38:34.633Z,3656.00
2018-07-28T05:39:34.623Z,3696.00
2018-07-28T05:40:34.656Z,3720.00
2018-07-28T05:41:34.605Z,3756.00
2018-07-28T05:42:34.624Z,3784.00
2018-07-28T05:43:34.572Z,3812.00
2018-07-28T05:44:34.563Z,3844.00
2018-07-28T05:45:34.562Z,3884.00
2018-07-28T05:46:34.582Z,3932.00
2018-07-28T05:47:34.533Z,3968.00
2018-07-28T05:48:34.538Z,4004.00
2018-07-28T05:49:34.512Z,4052.00
2018-07-28T05:50:34.504Z,4080.00
2018-07-28T05:51:34.523Z,4108.00
2018-07-28T05:52:34.529Z,4136.00
2018-07-28T05:53:34.472Z,4160.00
2018-07-28T05:54:34.468Z,4180.00
2018-07-28T05:55:34.444Z,4188.00
2018-07-28T05:56:34.442Z,4204.00
2018-07-28T05:57:34.446Z,4232.00
2018-07-28T05:58:34.410Z,4248.00
2018-07-28T05:59:34.407Z,4260.00
2018-07-28T06:00:34.400Z,4276.00
2018-07-28T06:01:34.381Z,4312.00
2018-07-28T06:02:34.541Z,4356.00
2018-07-28T06:03:34.367Z,4424.00
2018-07-28T06:04:34.359Z,4532.00
2018-07-28T06:05:34.341Z,4704.00
2018-07-28T06:06:34.332Z,4952.00
2018-07-28T06:07:34.314Z,5344.00
2018-07-28T06:08:34.311Z,5904.00
2018-07-28T06:09:34.295Z,6688.00
2018-07-28T06:10:34.281Z,7700.00
2018-07-28T06:11:34.292Z,8680.00
2018-07-28T06:12:34.265Z,9832.00
2018-07-28T06:13:34.262Z,10888.00
2018-07-28T06:14:34.260Z,11432.00
2018-07-28T06:15:34.236Z,11704.00
2018-07-28T06:16:34.220Z,11980.00
2018-07-28T06:17:34.211Z,12308.00
2018-07-28T06:18:34.206Z,12436.00
2018-07-28T06:19:34.194Z,12680.00
2018-07-28T06:20:34.179Z,12920.00
2018-07-28T06:21:34.169Z,13228.00
2018-07-28T06:22:34.154Z,13644.00
2018-07-28T06:23:34.177Z,13412.00
2018-07-28T06:24:34.152Z,13104.00
2018-07-28T06:25:34.126Z,13276.00
2018-07-28T06:26:34.118Z,13040.00
2018-07-28T06:27:34.105Z,12720.00
2018-07-28T06:28:34.092Z,11824.00
2018-07-28T06:29:34.086Z,11000.00
2018-07-28T06:30:34.085Z,10428.00
2018-07-28T06:31:34.114Z,10036.00
2018-07-28T06:32:34.054Z,9384.00
2018-07-28T06:33:34.132Z,8728.00
2018-07-28T06:34:34.046Z,8236.00
2018-07-28T06:35:34.139Z,7852.00
2018-07-28T06:36:34.102Z,7592.00
2018-07-28T06:37:34.071Z,7440.00
2018-07-28T06:38:34.023Z,7268.00
2018-07-28T06:39:34.090Z,7132.00
2018-07-28T06:40:34.038Z,7028.00
2018-07-28T06:41:33.978Z,6964.00
2018-07-28T06:42:33.979Z,7048.00
2018-07-28T06:43:33.988Z,7340.00
2018-07-28T06:44:34.064Z,7748.00
2018-07-28T06:45:34.823Z,8248.00
2018-07-28T06:46:34.228Z,8732.00
2018-07-28T06:47:33.993Z,9216.00
2018-07-28T06:48:33.916Z,9716.00
2018-07-28T06:49:33.887Z,10272.00
2018-07-28T06:50:33.908Z,10800.00
2018-07-28T06:51:33.893Z,11316.00
2018-07-28T06:52:33.919Z,11552.00
2018-07-28T06:53:33.921Z,11956.00
2018-07-28T06:54:33.927Z,11944.00
2018-07-28T06:55:33.835Z,11236.00
2018-07-28T06:56:33.808Z,10104.00
2018-07-28T06:57:33.790Z,9408.00
2018-07-28T06:58:33.806Z,8628.00
2018-07-28T06:59:33.757Z,8220.00
2018-07-28T07:00:33.757Z,8504.00
2018-07-28T07:01:33.753Z,8464.00
2018-07-28T07:02:33.730Z,9212.00
2018-07-28T07:03:33.782Z,9440.00
2018-07-28T07:04:33.707Z,9976.00
2018-07-28T07:05:33.694Z,10040.00
2018-07-28T07:06:33.684Z,10068.00
2018-07-28T07:07:33.677Z,9980.00
2018-07-28T07:08:33.667Z,9908.00
2018-07-28T07:09:33.656Z,9812.00
2018-07-28T07:10:33.653Z,10240.00
2018-07-28T07:11:33.709Z,9568.00
2018-07-28T07:12:33.626Z,9180.00
2018-07-28T07:13:33.607Z,8872.00
2018-07-28T07:14:33.599Z,8500.00
2018-07-28T07:15:33.594Z,7888.00
2018-07-28T07:16:33.583Z,7240.00
2018-07-28T07:17:34.516Z,6588.00
2018-07-28T07:18:33.560Z,6008.00
2018-07-28T07:19:33.543Z,5476.00
2018-07-28T07:20:33.547Z,5212.00
2018-07-28T07:21:33.559Z,4856.00
2018-07-28T07:22:33.517Z,4724.00
2018-07-28T07:23:33.498Z,4736.00
2018-07-28T07:24:33.501Z,4812.00
2018-07-28T07:25:33.498Z,5164.00
2018-07-28T07:26:33.502Z,5824.00
2018-07-28T07:27:33.512Z,6796.00
2018-07-28T07:28:33.452Z,7596.00
2018-07-28T07:29:33.449Z,8604.00
2018-07-28T07:30:33.455Z,9644.00
2018-07-28T07:31:33.430Z,10488.00
2018-07-28T07:32:33.490Z,10744.00
2018-07-28T07:33:33.397Z,10624.00
2018-07-28T07:34:33.386Z,9668.00
2018-07-28T07:35:33.387Z,8816.00
2018-07-28T07:36:33.372Z,7924.00
2018-07-28T07:37:33.376Z,7420.00
2018-07-28T07:38:33.385Z,7268.00
2018-07-28T07:39:33.349Z,7620.00
2018-07-28T07:40:33.364Z,7708.00
2018-07-28T07:41:33.400Z,7548.00
2018-07-28T07:42:33.346Z,7140.00
2018-07-28T07:43:33.334Z,6392.00
2018-07-28T07:44:33.306Z,5480.00
2018-07-28T07:45:33.274Z,4740.00
2018-07-28T07:46:33.295Z,4240.00
2018-07-28T07:47:33.393Z,3932.00
2018-07-28T07:48:33.270Z,3820.00
2018-07-28T07:49:33.232Z,3860.00
2018-07-28T07:50:33.227Z,3908.00
2018-07-28T07:51:33.209Z,4028.00
2018-07-28T07:52:33.201Z,4140.00
2018-07-28T07:53:33.215Z,4236.00
2018-07-28T07:54:33.183Z,4264.00
2018-07-28T07:55:33.164Z,4272.00
2018-07-28T07:56:33.156Z,4304.00
2018-07-28T07:57:33.145Z,4292.00
2018-07-28T07:58:33.133Z,4200.00
2018-07-28T07:59:33.173Z,4096.00
2018-07-28T08:00:33.118Z,3932.00
2018-07-28T08:01:33.197Z,3816.00
2018-07-28T08:02:33.131Z,3640.00
2018-07-28T08:03:33.123Z,3456.00
2018-07-28T08:04:33.086Z,3292.00
2018-07-28T08:05:33.068Z,3224.00
2018-07-28T08:06:33.097Z,3140.00
2018-07-28T08:07:33.106Z,3132.00
2018-07-28T08:08:33.054Z,3200.00
2018-07-28T08:09:33.097Z,3260.00
2018-07-28T08:10:33.052Z,3332.00
2018-07-28T08:11:33.051Z,3412.00
2018-07-28T08:12:33.093Z,3480.00
2018-07-28T08:13:33.025Z,3500.00
2018-07-28T08:14:32.982Z,3480.00
2018-07-28T08:15:32.996Z,3452.00
2018-07-28T08:16:32.981Z,3436.00
2018-07-28T08:17:32.972Z,3480.00
2018-07-28T08:18:32.968Z,3720.00
2018-07-28T08:19:32.949Z,4188.00
2018-07-28T08:20:33.073Z,4916.00
2018-07-28T08:21:33.248Z,5896.00
2018-07-28T08:22:33.105Z,6904.00
2018-07-28T08:23:32.926Z,7924.00
2018-07-28T08:24:32.951Z,9092.00
2018-07-28T08:25:32.863Z,10384.00
2018-07-28T08:26:32.845Z,11600.00
2018-07-28T08:27:32.833Z,12564.00
2018-07-28T08:28:32.819Z,13268.00
2018-07-28T08:29:32.915Z,13892.00
2018-07-28T08:30:32.884Z,14576.00
2018-07-28T08:31:32.785Z,14824.00
2018-07-28T08:32:32.779Z,14468.00
2018-07-28T08:33:32.761Z,14132.00
2018-07-28T08:34:32.753Z,13968.00
2018-07-28T08:35:32.735Z,14264.00
2018-07-28T08:36:32.733Z,15252.00
2018-07-28T08:37:32.722Z,16896.00
2018-07-28T08:38:32.705Z,18048.00
2018-07-28T08:39:32.699Z,18752.00
2018-07-28T08:40:32.687Z,18624.00
2018-07-28T08:41:32.689Z,18016.00
2018-07-28T08:42:32.663Z,16992.00
2018-07-28T08:43:32.664Z,16704.00
2018-07-28T08:44:32.643Z,16928.00
2018-07-28T08:45:32.633Z,17696.00
2018-07-28T08:46:32.625Z,18656.00
2018-07-28T08:47:32.617Z,19424.00
2018-07-28T08:48:32.598Z,20256.00
2018-07-28T08:49:32.631Z,21056.00
2018-07-28T08:50:32.578Z,20416.00
2018-07-28T08:51:32.597Z,18528.00
2018-07-28T08:52:32.583Z,16480.00
2018-07-28T08:53:32.557Z,14504.00
2018-07-28T08:54:32.572Z,12972.00
2018-07-28T08:55:32.564Z,11952.00
2018-07-28T08:56:32.543Z,11228.00
2018-07-28T08:57:32.504Z,10332.00
2018-07-28T08:58:32.499Z,9888.00
2018-07-28T08:59:32.492Z,9604.00
2018-07-28T09:00:32.486Z,9476.00
2018-07-28T09:01:32.466Z,9532.00
2018-07-28T09:02:32.464Z,9688.00
2018-07-28T09:03:32.442Z,10048.00
2018-07-28T09:04:32.435Z,10612.00
2018-07-28T09:05:32.418Z,10620.00
2018-07-28T09:06:32.433Z,9848.00
2018-07-28T09:07:32.412Z,8856.00
2018-07-28T09:08:32.392Z,7984.00
2018-07-28T09:09:32.391Z,7336.00
2018-07-28T09:10:32.407Z,6824.00
2018-07-28T09:11:32.364Z,6736.00
2018-07-28T09:12:32.485Z,6748.00
2018-07-28T09:13:32.329Z,6940.00
2018-07-28T09:14:32.317Z,7420.00
2018-07-28T09:15:32.312Z,8004.00
2018-07-28T09:16:32.341Z,8592.00
2018-07-28T09:17:32.307Z,9016.00
2018-07-28T09:18:32.281Z,9284.00
2018-07-28T09:19:32.266Z,9380.00
2018-07-28T09:20:32.258Z,9740.00
2018-07-28T09:21:32.243Z,10516.00
2018-07-28T09:22:32.289Z,11208.00
2018-07-28T09:23:32.276Z,11696.00
2018-07-28T09:24:32.215Z,11828.00
2018-07-28T09:25:32.206Z,11884.00
2018-07-28T09:26:32.201Z,12128.00
2018-07-28T09:27:32.180Z,12248.00
2018-07-28T09:28:32.170Z,12256.00
2018-07-28T09:29:32.170Z,12032.00
2018-07-28T09:30:32.153Z,11816.00
2018-07-28T09:31:32.138Z,11876.00
2018-07-28T09:32:32.139Z,11752.00
2018-07-28T09:33:32.146Z,11492.00
2018-07-28T09:34:32.101Z,11388.00
2018-07-28T09:35:32.098Z,11568.00
2018-07-28T09:36:32.085Z,12016.00
2018-07-28T09:37:32.105Z,12648.00
2018-07-28T09:38:32.067Z,13304.00
2018-07-28T09:39:32.049Z,13720.00
2018-07-28T09:40:32.039Z,14084.00
2018-07-28T09:41:32.028Z,14300.00
2018-07-28T09:42:32.016Z,14572.00
2018-07-28T09:43:32.049Z,15024.00
2018-07-28T09:44:32.013Z,15752.00
2018-07-28T09:45:32.027Z,16864.00
2018-07-28T09:46:31.981Z,17888.00
2018-07-28T09:47:31.985Z,18784.00
2018-07-28T09:48:31.988Z,19136.00
2018-07-28T09:49:31.948Z,19040.00
2018-07-28T09:50:31.938Z,18944.00
2018-07-28T09:51:31.925Z,19104.00
2018-07-28T09:52:31.916Z,19744.00
2018-07-28T09:53:31.902Z,20672.00
2018-07-28T09:54:31.891Z,21824.00
2018-07-28T09:55:31.885Z,22784.00
2018-07-28T09:56:31.910Z,23520.00
2018-07-28T09:57:31.861Z,24032.00
2018-07-28T09:58:31.866Z,24384.00
2018-07-28T09:59:31.897Z,24480.00
2018-07-28T10:00:31.826Z,24640.00
2018-07-28T10:01:31.824Z,24512.00
2018-07-28T10:02:31.809Z,24160.00
2018-07-28T10:03:31.793Z,23424.00
2018-07-28T10:04:31.783Z,22848.00
2018-07-28T10:05:31.797Z,23008.00
2018-07-28T10:06:31.760Z,23680.00
2018-07-28T10:07:31.764Z,24768.00
2018-07-28T10:08:31.744Z,25312.00
2018-07-28T10:09:31.739Z,25568.00
2018-07-28T10:10:31.727Z,25760.00
2018-07-28T10:11:31.713Z,25856.00
2018-07-28T10:12:31.703Z,25792.00
2018-07-28T10:13:31.690Z,25504.00
2018-07-28T10:14:31.676Z,24960.00
2018-07-28T10:15:31.676Z,24224.00
2018-07-28T10:16:31.660Z,23488.00
2018-07-28T10:17:31.649Z,22432.00
2018-07-28T10:18:31.635Z,21120.00
2018-07-28T10:19:31.634Z,20000.00
2018-07-28T10:20:31.649Z,19392.00
2018-07-28T10:21:31.609Z,18688.00
2018-07-28T10:22:31.603Z,19456.00
2018-07-28T10:23:31.584Z,19744.00
2018-07-28T10:24:31.594Z,19680.00
2018-07-28T10:25:31.567Z,19808.00
2018-07-28T10:26:31.559Z,19936.00
2018-07-28T10:27:31.550Z,20032.00
2018-07-28T10:28:31.600Z,20128.00
2018-07-28T10:29:31.526Z,20768.00
2018-07-28T10:30:31.553Z,21888.00
2018-07-28T10:31:31.500Z,22976.00
2018-07-28T10:32:31.502Z,23872.00
2018-07-28T10:33:31.501Z,24576.00
2018-07-28T10:34:31.533Z,24992.00
2018-07-28T10:35:31.486Z,25504.00
2018-07-28T10:36:31.497Z,24480.00
2018-07-28T10:37:31.451Z,23456.00
2018-07-28T10:38:31.444Z,22560.00
2018-07-28T10:39:31.431Z,22336.00
2018-07-28T10:40:31.416Z,21248.00
2018-07-28T10:41:31.408Z,19712.00
2018-07-28T10:42:31.393Z,17376.00
2018-07-28T10:43:31.382Z,14988.00
2018-07-28T10:44:31.368Z,12872.00
2018-07-28T10:45:31.407Z,11140.00
2018-07-28T10:46:31.375Z,9708.00
2018-07-28T10:47:31.340Z,8656.00
2018-07-28T10:48:31.332Z,8088.00
2018-07-28T10:49:31.335Z,8228.00
2018-07-28T10:50:31.301Z,8828.00
2018-07-28T10:51:31.301Z,9776.00
2018-07-28T10:52:31.298Z,10608.00
2018-07-28T10:53:31.275Z,11340.00
2018-07-28T10:54:31.301Z,12392.00
2018-07-28T10:55:31.294Z,13672.00
2018-07-28T10:56:31.247Z,15156.00
2018-07-28T10:57:31.230Z,16928.00
2018-07-28T10:58:31.216Z,18976.00
2018-07-28T10:59:31.222Z,21728.00
2018-07-28T11:00:31.237Z,24224.00
2018-07-28T11:01:31.187Z,26240.00
2018-07-28T11:02:31.224Z,28096.00
2018-07-28T11:03:31.166Z,30048.00
2018-07-28T11:04:31.156Z,30880.00
2018-07-28T11:05:31.145Z,31520.00
2018-07-28T11:06:31.138Z,31456.00
2018-07-28T11:07:31.122Z,29568.00
2018-07-28T11:08:31.117Z,29472.00
2018-07-28T11:09:31.115Z,30048.00
2018-07-28T11:10:31.090Z,30464.00
2018-07-28T11:11:31.098Z,32608.00
2018-07-28T11:12:31.073Z,34400.00
2018-07-28T11:13:31.091Z,34016.00
2018-07-28T11:14:31.054Z,30528.00
2018-07-28T11:15:31.040Z,29216.00
2018-07-28T11:16:31.058Z,29216.00
2018-07-28T11:17:31.725Z,29888.00
2018-07-28T11:18:31.077Z,32320.00
2018-07-28T11:19:31.006Z,37920.00
2018-07-28T11:20:30.990Z,32896.00
2018-07-28T11:21:30.976Z,31968.00
2018-07-28T11:22:30.982Z,42624.00
2018-07-28T11:23:30.978Z,37952.00
2018-07-28T11:24:30.987Z,48448.00
2018-07-28T11:25:30.937Z,54400.00
2018-07-28T11:26:30.931Z,57568.00
2018-07-28T11:27:30.915Z,35040.00
2018-07-28T11:28:30.911Z,35264.00
2018-07-28T11:29:30.897Z,40640.00
2018-07-28T11:30:30.882Z,34624.00
2018-07-28T11:31:30.935Z,31840.00
2018-07-28T11:32:30.908Z,30496.00
2018-07-28T11:33:30.861Z,28832.00
2018-07-28T11:34:30.887Z,26848.00
2018-07-28T11:35:30.833Z,25024.00
2018-07-28T11:36:30.829Z,23520.00
2018-07-28T11:37:30.848Z,22496.00
2018-07-28T11:38:30.825Z,21184.00
2018-07-28T11:39:30.801Z,20480.00
2018-07-28T11:40:30.785Z,20608.00
2018-07-28T11:41:30.772Z,22528.00
2018-07-28T11:42:30.759Z,27008.00
2018-07-28T11:43:30.793Z,30432.00
2018-07-28T11:44:30.816Z,32160.00
2018-07-28T11:45:30.732Z,51904.00
2018-07-28T11:46:30.731Z,77760.00
2018-07-28T11:47:30.709Z,71360.00
2018-07-28T11:48:30.700Z,64448.00
2018-07-28T11:49:30.699Z,35296.00
2018-07-28T11:50:30.679Z,31744.00
2018-07-28T11:51:30.679Z,38944.00
2018-07-28T11:52:30.681Z,39136.00
2018-07-28T11:53:30.659Z,69088.00
2018-07-28T11:54:30.658Z,69376.00
2018-07-28T11:55:30.678Z,64320.00
2018-07-28T11:56:30.622Z,69120.00
2018-07-28T11:57:30.614Z,54304.00
2018-07-28T11:58:30.716Z,93280.00
2018-07-28T11:59:30.609Z,99872.00
2018-07-28T12:00:30.610Z,92320.00
2018-07-28T12:01:30.579Z,41856.00
2018-07-28T12:02:30.569Z,96192.00
2018-07-28T12:03:30.560Z,105984.00
2018-07-28T12:04:30.550Z,85056.00
2018-07-28T12:05:30.620Z,73440.00
2018-07-28T12:06:30.550Z,95680.00
2018-07-28T12:07:30.517Z,98240.00
2018-07-28T12:08:30.521Z,82112.00
2018-07-28T12:09:30.505Z,76256.00
2018-07-28T12:10:30.509Z,81472.00
2018-07-28T12:11:30.486Z,72352.00
2018-07-28T12:12:30.557Z,76768.00
2018-07-28T12:13:30.507Z,86752.00
2018-07-28T12:14:30.452Z,85728.00
2018-07-28T12:15:30.485Z,90912.00
2018-07-28T12:16:30.472Z,93760.00
2018-07-28T12:17:30.469Z,94720.00
2018-07-28T12:18:30.480Z,94208.00